sensor_id;sensor_type;location;lat;lon;timestamp;P1;durP1;ratioP1;P2;durP2;ratioP2
25153;SDS011;47555;51.038;6.280;2023-09-19T00:01:12;6.20;;;2.63;;
25153;SDS011;47555;51.038;6.280;2023-09-19T00:03:39;7.68;;;2.22;;
25153;SDS011;47555;51.038;6.280;2023-09-19T00:06:07;4.82;;;2.20;;
25153;SDS011;47555;51.038;6.280;2023-09-19T00:08:36;8.27;;;2.80;;
25153;SDS011;47555;51.038;6.280;2023-09-19T00:11:02;6.07;;;2.60;;
25153;SDS011;47555;51.038;6.280;2023-09-19T00:13:33;7.22;;;2.45;;
25153;SDS011;47555;51.038;6.280;2023-09-19T00:16:01;6.15;;;2.15;;
25153;SDS011;47555;51.038;6.280;2023-09-19T00:18:33;8.15;;;2.30;;
25153;SDS011;47555;51.038;6.280;2023-09-19T00:20:59;4.75;;;2.15;;
25153;SDS011;47555;51.038;6.280;2023-09-19T00:23:25;5.13;;;2.42;;
25153;SDS011;47555;51.038;6.280;2023-09-19T00:25:52;7.00;;;2.28;;
25153;SDS011;47555;51.038;6.280;2023-09-19T00:28:22;6.28;;;2.30;;
25153;SDS011;47555;51.038;6.280;2023-09-19T00:30:48;4.70;;;2.10;;
25153;SDS011;47555;51.038;6.280;2023-09-19T00:33:17;12.23;;;2.70;;
25153;SDS011;47555;51.038;6.280;2023-09-19T00:35:50;11.50;;;2.90;;
25153;SDS011;47555;51.038;6.280;2023-09-19T00:38:17;7.38;;;2.38;;
25153;SDS011;47555;51.038;6.280;2023-09-19T00:40:46;10.27;;;2.40;;
25153;SDS011;47555;51.038;6.280;2023-09-19T00:43:12;6.40;;;2.60;;
25153;SDS011;47555;51.038;6.280;2023-09-19T00:45:38;5.75;;;2.28;;
25153;SDS011;47555;51.038;6.280;2023-09-19T00:48:08;12.10;;;2.95;;
25153;SDS011;47555;51.038;6.280;2023-09-19T00:50:35;7.88;;;2.45;;
25153;SDS011;47555;51.038;6.280;2023-09-19T00:53:01;8.60;;;2.22;;
25153;SDS011;47555;51.038;6.280;2023-09-19T00:55:32;8.07;;;2.83;;
25153;SDS011;47555;51.038;6.280;2023-09-19T00:57:59;7.43;;;2.33;;
25153;SDS011;47555;51.038;6.280;2023-09-19T01:00:25;9.15;;;2.25;;
25153;SDS011;47555;51.038;6.280;2023-09-19T01:02:51;10.10;;;2.40;;
25153;SDS011;47555;51.038;6.280;2023-09-19T01:05:17;7.28;;;2.67;;
25153;SDS011;47555;51.038;6.280;2023-09-19T01:07:43;9.25;;;2.42;;
25153;SDS011;47555;51.038;6.280;2023-09-19T01:10:11;11.82;;;3.22;;
25153;SDS011;47555;51.038;6.280;2023-09-19T01:15:28;5.55;;;2.15;;
25153;SDS011;47555;51.038;6.280;2023-09-19T01:18:11;5.93;;;2.03;;
25153;SDS011;47555;51.038;6.280;2023-09-19T01:20:53;10.77;;;2.70;;
25153;SDS011;47555;51.038;6.280;2023-09-19T01:29:17;7.70;;;2.22;;
25153;SDS011;47555;51.038;6.280;2023-09-19T01:31:54;9.18;;;2.30;;
25153;SDS011;47555;51.038;6.280;2023-09-19T01:34:22;7.35;;;2.15;;
25153;SDS011;47555;51.038;6.280;2023-09-19T01:36:48;8.15;;;2.08;;
25153;SDS011;47555;51.038;6.280;2023-09-19T01:39:14;9.18;;;2.63;;
25153;SDS011;47555;51.038;6.280;2023-09-19T01:42:01;8.10;;;2.40;;
25153;SDS011;47555;51.038;6.280;2023-09-19T01:47:23;7.38;;;2.00;;
25153;SDS011;47555;51.038;6.280;2023-09-19T01:52:36;4.90;;;1.80;;
25153;SDS011;47555;51.038;6.280;2023-09-19T01:55:07;7.43;;;1.80;;
25153;SDS011;47555;51.038;6.280;2023-09-19T01:57:35;11.20;;;2.15;;
25153;SDS011;47555;51.038;6.280;2023-09-19T02:00:06;4.18;;;1.90;;
25153;SDS011;47555;51.038;6.280;2023-09-19T02:02:34;5.57;;;1.73;;
25153;SDS011;47555;51.038;6.280;2023-09-19T02:05:00;5.20;;;2.17;;
25153;SDS011;47555;51.038;6.280;2023-09-19T02:07:26;8.60;;;1.80;;
25153;SDS011;47555;51.038;6.280;2023-09-19T02:09:52;8.98;;;2.33;;
25153;SDS011;47555;51.038;6.280;2023-09-19T02:12:18;12.02;;;2.47;;
25153;SDS011;47555;51.038;6.280;2023-09-19T02:14:44;7.72;;;2.20;;
25153;SDS011;47555;51.038;6.280;2023-09-19T02:17:10;5.18;;;2.10;;
25153;SDS011;47555;51.038;6.280;2023-09-19T02:19:37;8.48;;;2.20;;
25153;SDS011;47555;51.038;6.280;2023-09-19T02:22:04;10.95;;;2.35;;
25153;SDS011;47555;51.038;6.280;2023-09-19T02:24:35;9.65;;;2.25;;
25153;SDS011;47555;51.038;6.280;2023-09-19T02:27:01;3.00;;;1.55;;
25153;SDS011;47555;51.038;6.280;2023-09-19T02:29:29;7.47;;;2.90;;
25153;SDS011;47555;51.038;6.280;2023-09-19T02:31:55;7.93;;;2.25;;
25153;SDS011;47555;51.038;6.280;2023-09-19T02:34:21;10.38;;;2.85;;
25153;SDS011;47555;51.038;6.280;2023-09-19T02:36:47;11.07;;;2.60;;
25153;SDS011;47555;51.038;6.280;2023-09-19T02:39:13;6.07;;;2.10;;
25153;SDS011;47555;51.038;6.280;2023-09-19T02:41:39;9.13;;;1.95;;
25153;SDS011;47555;51.038;6.280;2023-09-19T02:44:06;9.82;;;2.20;;
25153;SDS011;47555;51.038;6.280;2023-09-19T02:46:33;7.50;;;2.13;;
25153;SDS011;47555;51.038;6.280;2023-09-19T02:49:01;9.60;;;2.33;;
25153;SDS011;47555;51.038;6.280;2023-09-19T02:51:28;9.85;;;2.00;;
25153;SDS011;47555;51.038;6.280;2023-09-19T02:53:54;8.18;;;2.00;;
25153;SDS011;47555;51.038;6.280;2023-09-19T02:56:20;9.82;;;2.30;;
25153;SDS011;47555;51.038;6.280;2023-09-19T02:58:47;6.80;;;1.83;;
25153;SDS011;47555;51.038;6.280;2023-09-19T03:01:13;10.10;;;1.95;;
25153;SDS011;47555;51.038;6.280;2023-09-19T03:03:39;7.55;;;2.15;;
25153;SDS011;47555;51.038;6.280;2023-09-19T03:06:06;7.03;;;1.83;;
25153;SDS011;47555;51.038;6.280;2023-09-19T03:08:34;7.53;;;2.55;;
25153;SDS011;47555;51.038;6.280;2023-09-19T03:11:02;5.97;;;2.17;;
25153;SDS011;47555;51.038;6.280;2023-09-19T03:13:30;8.82;;;2.08;;
25153;SDS011;47555;51.038;6.280;2023-09-19T03:15:56;5.88;;;1.92;;
25153;SDS011;47555;51.038;6.280;2023-09-19T03:18:23;9.50;;;2.40;;
25153;SDS011;47555;51.038;6.280;2023-09-19T03:20:54;9.50;;;2.03;;
25153;SDS011;47555;51.038;6.280;2023-09-19T03:23:21;5.40;;;1.65;;
25153;SDS011;47555;51.038;6.280;2023-09-19T03:25:47;6.10;;;2.08;;
25153;SDS011;47555;51.038;6.280;2023-09-19T03:28:13;7.95;;;1.58;;
25153;SDS011;47555;51.038;6.280;2023-09-19T03:30:41;6.53;;;1.85;;
25153;SDS011;47555;51.038;6.280;2023-09-19T03:33:07;5.43;;;1.77;;
25153;SDS011;47555;51.038;6.280;2023-09-19T03:35:33;6.53;;;2.35;;
25153;SDS011;47555;51.038;6.280;2023-09-19T03:37:59;5.15;;;1.80;;
25153;SDS011;47555;51.038;6.280;2023-09-19T03:40:25;7.60;;;1.98;;
25153;SDS011;47555;51.038;6.280;2023-09-19T03:42:51;11.05;;;2.38;;
25153;SDS011;47555;51.038;6.280;2023-09-19T03:45:17;10.07;;;2.40;;
25153;SDS011;47555;51.038;6.280;2023-09-19T03:47:43;8.90;;;2.03;;
25153;SDS011;47555;51.038;6.280;2023-09-19T03:50:12;9.55;;;2.17;;
25153;SDS011;47555;51.038;6.280;2023-09-19T03:52:40;8.88;;;1.67;;
25153;SDS011;47555;51.038;6.280;2023-09-19T03:55:07;5.50;;;2.10;;
25153;SDS011;47555;51.038;6.280;2023-09-19T03:57:34;9.05;;;1.77;;
25153;SDS011;47555;51.038;6.280;2023-09-19T04:00:01;7.78;;;2.10;;
25153;SDS011;47555;51.038;6.280;2023-09-19T04:02:27;10.60;;;2.20;;
25153;SDS011;47555;51.038;6.280;2023-09-19T04:04:58;5.40;;;1.67;;
25153;SDS011;47555;51.038;6.280;2023-09-19T04:07:24;4.97;;;1.80;;
25153;SDS011;47555;51.038;6.280;2023-09-19T04:09:53;5.57;;;1.70;;
25153;SDS011;47555;51.038;6.280;2023-09-19T04:12:20;8.00;;;1.80;;
25153;SDS011;47555;51.038;6.280;2023-09-19T04:14:46;12.60;;;2.20;;
25153;SDS011;47555;51.038;6.280;2023-09-19T04:17:12;9.50;;;2.17;;
25153;SDS011;47555;51.038;6.280;2023-09-19T04:19:38;8.73;;;2.40;;
25153;SDS011;47555;51.038;6.280;2023-09-19T04:22:08;9.20;;;1.65;;
25153;SDS011;47555;51.038;6.280;2023-09-19T04:24:36;6.85;;;2.50;;
25153;SDS011;47555;51.038;6.280;2023-09-19T04:27:03;6.38;;;1.67;;
25153;SDS011;47555;51.038;6.280;2023-09-19T04:29:29;9.70;;;2.00;;
25153;SDS011;47555;51.038;6.280;2023-09-19T04:31:55;4.93;;;1.52;;
25153;SDS011;47555;51.038;6.280;2023-09-19T04:34:24;7.40;;;1.88;;
25153;SDS011;47555;51.038;6.280;2023-09-19T04:36:50;9.65;;;1.98;;
25153;SDS011;47555;51.038;6.280;2023-09-19T04:39:16;9.20;;;2.25;;
25153;SDS011;47555;51.038;6.280;2023-09-19T04:41:42;13.95;;;2.78;;
25153;SDS011;47555;51.038;6.280;2023-09-19T04:44:11;5.80;;;1.75;;
25153;SDS011;47555;51.038;6.280;2023-09-19T04:46:38;6.15;;;1.88;;
25153;SDS011;47555;51.038;6.280;2023-09-19T04:49:04;7.57;;;2.58;;
25153;SDS011;47555;51.038;6.280;2023-09-19T04:51:30;7.85;;;2.25;;
25153;SDS011;47555;51.038;6.280;2023-09-19T04:53:59;7.03;;;1.92;;
25153;SDS011;47555;51.038;6.280;2023-09-19T04:56:25;9.48;;;2.08;;
25153;SDS011;47555;51.038;6.280;2023-09-19T04:58:53;8.65;;;1.83;;
25153;SDS011;47555;51.038;6.280;2023-09-19T05:01:19;8.45;;;2.03;;
25153;SDS011;47555;51.038;6.280;2023-09-19T05:03:48;16.60;;;2.30;;
25153;SDS011;47555;51.038;6.280;2023-09-19T05:06:18;6.97;;;1.73;;
25153;SDS011;47555;51.038;6.280;2023-09-19T05:08:46;8.50;;;1.90;;
25153;SDS011;47555;51.038;6.280;2023-09-19T05:11:14;5.72;;;2.10;;
25153;SDS011;47555;51.038;6.280;2023-09-19T05:13:40;11.30;;;2.67;;
25153;SDS011;47555;51.038;6.280;2023-09-19T05:16:06;7.82;;;2.03;;
25153;SDS011;47555;51.038;6.280;2023-09-19T05:18:34;7.90;;;2.05;;
25153;SDS011;47555;51.038;6.280;2023-09-19T05:21:02;6.07;;;2.25;;
25153;SDS011;47555;51.038;6.280;2023-09-19T05:23:28;6.55;;;2.33;;
25153;SDS011;47555;51.038;6.280;2023-09-19T05:25:54;6.75;;;1.85;;
25153;SDS011;47555;51.038;6.280;2023-09-19T05:28:22;11.02;;;3.38;;
25153;SDS011;47555;51.038;6.280;2023-09-19T05:30:48;7.47;;;2.10;;
25153;SDS011;47555;51.038;6.280;2023-09-19T05:33:14;7.93;;;1.83;;
25153;SDS011;47555;51.038;6.280;2023-09-19T05:35:40;11.48;;;2.38;;
25153;SDS011;47555;51.038;6.280;2023-09-19T05:38:07;8.57;;;2.28;;
25153;SDS011;47555;51.038;6.280;2023-09-19T05:40:34;9.90;;;2.08;;
25153;SDS011;47555;51.038;6.280;2023-09-19T05:43:00;7.40;;;2.00;;
25153;SDS011;47555;51.038;6.280;2023-09-19T05:45:28;7.93;;;2.17;;
25153;SDS011;47555;51.038;6.280;2023-09-19T05:47:54;10.48;;;2.47;;
25153;SDS011;47555;51.038;6.280;2023-09-19T05:50:29;11.55;;;2.30;;
25153;SDS011;47555;51.038;6.280;2023-09-19T05:52:57;7.35;;;1.90;;
25153;SDS011;47555;51.038;6.280;2023-09-19T05:55:23;11.15;;;2.13;;
25153;SDS011;47555;51.038;6.280;2023-09-19T05:57:50;12.30;;;2.13;;
25153;SDS011;47555;51.038;6.280;2023-09-19T06:00:18;9.73;;;2.17;;
25153;SDS011;47555;51.038;6.280;2023-09-19T06:02:49;7.00;;;1.95;;
25153;SDS011;47555;51.038;6.280;2023-09-19T06:05:15;7.88;;;2.38;;
25153;SDS011;47555;51.038;6.280;2023-09-19T06:07:41;8.10;;;2.30;;
25153;SDS011;47555;51.038;6.280;2023-09-19T06:10:07;7.93;;;2.13;;
25153;SDS011;47555;51.038;6.280;2023-09-19T06:12:37;8.52;;;2.38;;
25153;SDS011;47555;51.038;6.280;2023-09-19T06:15:04;10.35;;;2.22;;
25153;SDS011;47555;51.038;6.280;2023-09-19T06:17:50;5.75;;;1.95;;
25153;SDS011;47555;51.038;6.280;2023-09-19T06:20:16;7.35;;;3.38;;
25153;SDS011;47555;51.038;6.280;2023-09-19T06:22:43;9.73;;;1.98;;
25153;SDS011;47555;51.038;6.280;2023-09-19T06:25:13;11.40;;;2.38;;
25153;SDS011;47555;51.038;6.280;2023-09-19T06:27:48;6.18;;;1.83;;
25153;SDS011;47555;51.038;6.280;2023-09-19T06:32:43;6.88;;;1.63;;
25153;SDS011;47555;51.038;6.280;2023-09-19T06:35:09;8.55;;;1.90;;
25153;SDS011;47555;51.038;6.280;2023-09-19T06:37:36;7.05;;;1.83;;
25153;SDS011;47555;51.038;6.280;2023-09-19T06:40:05;7.32;;;2.03;;
25153;SDS011;47555;51.038;6.280;2023-09-19T06:42:31;10.57;;;2.65;;
25153;SDS011;47555;51.038;6.280;2023-09-19T06:44:57;7.28;;;2.38;;
25153;SDS011;47555;51.038;6.280;2023-09-19T06:47:23;5.05;;;1.85;;
25153;SDS011;47555;51.038;6.280;2023-09-19T06:49:50;10.40;;;2.30;;
25153;SDS011;47555;51.038;6.280;2023-09-19T06:52:17;13.55;;;3.85;;
25153;SDS011;47555;51.038;6.280;2023-09-19T06:54:47;8.35;;;2.00;;
25153;SDS011;47555;51.038;6.280;2023-09-19T06:57:15;9.43;;;2.00;;
25153;SDS011;47555;51.038;6.280;2023-09-19T06:59:41;10.75;;;2.75;;
25153;SDS011;47555;51.038;6.280;2023-09-19T07:02:10;7.93;;;2.00;;
25153;SDS011;47555;51.038;6.280;2023-09-19T07:04:36;9.80;;;2.60;;
25153;SDS011;47555;51.038;6.280;2023-09-19T07:07:01;7.20;;;1.90;;
25153;SDS011;47555;51.038;6.280;2023-09-19T07:09:28;4.10;;;1.83;;
25153;SDS011;47555;51.038;6.280;2023-09-19T07:11:54;5.55;;;1.90;;
25153;SDS011;47555;51.038;6.280;2023-09-19T07:14:21;7.13;;;1.70;;
25153;SDS011;47555;51.038;6.280;2023-09-19T07:16:47;5.82;;;1.83;;
25153;SDS011;47555;51.038;6.280;2023-09-19T07:19:17;7.38;;;1.77;;
25153;SDS011;47555;51.038;6.280;2023-09-19T07:21:43;9.63;;;2.05;;
25153;SDS011;47555;51.038;6.280;2023-09-19T07:24:09;7.55;;;1.85;;
25153;SDS011;47555;51.038;6.280;2023-09-19T07:26:35;8.82;;;2.15;;
25153;SDS011;47555;51.038;6.280;2023-09-19T07:29:01;3.97;;;1.60;;
25153;SDS011;47555;51.038;6.280;2023-09-19T07:31:28;12.13;;;2.03;;
25153;SDS011;47555;51.038;6.280;2023-09-19T07:33:55;5.88;;;2.63;;
25153;SDS011;47555;51.038;6.280;2023-09-19T07:36:21;10.05;;;2.10;;
25153;SDS011;47555;51.038;6.280;2023-09-19T07:38:49;7.32;;;2.05;;
25153;SDS011;47555;51.038;6.280;2023-09-19T07:41:15;9.80;;;2.20;;
25153;SDS011;47555;51.038;6.280;2023-09-19T07:43:41;8.98;;;2.75;;
25153;SDS011;47555;51.038;6.280;2023-09-19T07:46:08;8.00;;;2.30;;
25153;SDS011;47555;51.038;6.280;2023-09-19T07:48:35;5.18;;;1.60;;
25153;SDS011;47555;51.038;6.280;2023-09-19T07:51:05;7.65;;;2.00;;
25153;SDS011;47555;51.038;6.280;2023-09-19T07:53:32;10.18;;;2.10;;
25153;SDS011;47555;51.038;6.280;2023-09-19T07:56:05;9.20;;;2.13;;
25153;SDS011;47555;51.038;6.280;2023-09-19T07:58:32;9.10;;;2.13;;
25153;SDS011;47555;51.038;6.280;2023-09-19T08:01:06;7.30;;;1.55;;
25153;SDS011;47555;51.038;6.280;2023-09-19T08:03:33;5.88;;;2.30;;
25153;SDS011;47555;51.038;6.280;2023-09-19T08:05:59;7.10;;;1.98;;
25153;SDS011;47555;51.038;6.280;2023-09-19T08:08:25;9.00;;;1.70;;
25153;SDS011;47555;51.038;6.280;2023-09-19T08:10:58;10.30;;;2.20;;
25153;SDS011;47555;51.038;6.280;2023-09-19T08:13:24;6.15;;;2.08;;
25153;SDS011;47555;51.038;6.280;2023-09-19T08:15:50;10.30;;;2.13;;
25153;SDS011;47555;51.038;6.280;2023-09-19T08:18:18;8.02;;;1.90;;
25153;SDS011;47555;51.038;6.280;2023-09-19T08:20:48;8.65;;;1.90;;
25153;SDS011;47555;51.038;6.280;2023-09-19T08:23:15;6.57;;;2.05;;
25153;SDS011;47555;51.038;6.280;2023-09-19T08:25:43;5.25;;;1.70;;
25153;SDS011;47555;51.038;6.280;2023-09-19T08:28:09;8.95;;;1.90;;
25153;SDS011;47555;51.038;6.280;2023-09-19T08:30:37;6.35;;;1.83;;
25153;SDS011;47555;51.038;6.280;2023-09-19T08:33:05;4.93;;;1.77;;
25153;SDS011;47555;51.038;6.280;2023-09-19T08:35:32;8.93;;;2.08;;
25153;SDS011;47555;51.038;6.280;2023-09-19T08:37:58;6.90;;;1.67;;
25153;SDS011;47555;51.038;6.280;2023-09-19T08:40:32;8.98;;;2.20;;
25153;SDS011;47555;51.038;6.280;2023-09-19T08:43:01;6.95;;;1.75;;
25153;SDS011;47555;51.038;6.280;2023-09-19T08:45:28;9.27;;;2.03;;
25153;SDS011;47555;51.038;6.280;2023-09-19T08:48:08;4.30;;;1.90;;
25153;SDS011;47555;51.038;6.280;2023-09-19T08:50:42;6.35;;;1.63;;
25153;SDS011;47555;51.038;6.280;2023-09-19T08:53:13;6.85;;;1.88;;
25153;SDS011;47555;51.038;6.280;2023-09-19T08:55:41;9.98;;;2.45;;
25153;SDS011;47555;51.038;6.280;2023-09-19T08:58:12;5.10;;;1.80;;
25153;SDS011;47555;51.038;6.280;2023-09-19T09:00:39;6.95;;;2.00;;
25153;SDS011;47555;51.038;6.280;2023-09-19T09:03:08;7.63;;;2.17;;
25153;SDS011;47555;51.038;6.280;2023-09-19T09:05:34;5.88;;;2.08;;
25153;SDS011;47555;51.038;6.280;2023-09-19T09:08:01;12.75;;;2.00;;
25153;SDS011;47555;51.038;6.280;2023-09-19T09:10:28;7.32;;;1.77;;
25153;SDS011;47555;51.038;6.280;2023-09-19T09:12:54;7.88;;;1.80;;
25153;SDS011;47555;51.038;6.280;2023-09-19T09:15:21;6.32;;;1.70;;
25153;SDS011;47555;51.038;6.280;2023-09-19T09:17:48;4.60;;;1.70;;
25153;SDS011;47555;51.038;6.280;2023-09-19T09:20:15;5.78;;;1.73;;
25153;SDS011;47555;51.038;6.280;2023-09-19T09:22:54;5.70;;;1.70;;
25153;SDS011;47555;51.038;6.280;2023-09-19T09:25:21;7.28;;;1.90;;
25153;SDS011;47555;51.038;6.280;2023-09-19T09:28:00;4.78;;;2.10;;
25153;SDS011;47555;51.038;6.280;2023-09-19T09:30:33;7.32;;;2.40;;
25153;SDS011;47555;51.038;6.280;2023-09-19T09:33:12;5.25;;;1.90;;
25153;SDS011;47555;51.038;6.280;2023-09-19T09:38:20;6.47;;;1.60;;
25153;SDS011;47555;51.038;6.280;2023-09-19T09:40:50;5.70;;;1.58;;
25153;SDS011;47555;51.038;6.280;2023-09-19T09:43:32;7.72;;;2.00;;
25153;SDS011;47555;51.038;6.280;2023-09-19T09:46:14;4.28;;;1.80;;
25153;SDS011;47555;51.038;6.280;2023-09-19T09:49:07;5.22;;;1.67;;
25153;SDS011;47555;51.038;6.280;2023-09-19T09:52:04;5.93;;;1.80;;
25153;SDS011;47555;51.038;6.280;2023-09-19T09:54:57;9.10;;;1.95;;
25153;SDS011;47555;51.038;6.280;2023-09-19T09:59:54;7.47;;;1.63;;
25153;SDS011;47555;51.038;6.280;2023-09-19T10:02:27;4.25;;;1.48;;
25153;SDS011;47555;51.038;6.280;2023-09-19T10:05:11;5.47;;;1.60;;
25153;SDS011;47555;51.038;6.280;2023-09-19T10:07:47;8.57;;;2.30;;
25153;SDS011;47555;51.038;6.280;2023-09-19T10:10:37;6.20;;;2.15;;
25153;SDS011;47555;51.038;6.280;2023-09-19T10:13:07;6.43;;;1.92;;
25153;SDS011;47555;51.038;6.280;2023-09-19T10:15:37;8.57;;;2.00;;
25153;SDS011;47555;51.038;6.280;2023-09-19T10:18:05;10.20;;;2.05;;
25153;SDS011;47555;51.038;6.280;2023-09-19T10:20:33;9.05;;;2.17;;
25153;SDS011;47555;51.038;6.280;2023-09-19T10:23:09;7.78;;;1.90;;
25153;SDS011;47555;51.038;6.280;2023-09-19T10:25:37;8.88;;;2.38;;
25153;SDS011;47555;51.038;6.280;2023-09-19T10:28:05;6.95;;;1.33;;
25153;SDS011;47555;51.038;6.280;2023-09-19T10:30:35;5.03;;;2.10;;
25153;SDS011;47555;51.038;6.280;2023-09-19T10:33:04;8.50;;;1.75;;
25153;SDS011;47555;51.038;6.280;2023-09-19T10:35:33;10.45;;;2.33;;
25153;SDS011;47555;51.038;6.280;2023-09-19T10:38:00;9.00;;;2.00;;
25153;SDS011;47555;51.038;6.280;2023-09-19T10:40:26;8.75;;;1.95;;
25153;SDS011;47555;51.038;6.280;2023-09-19T10:43:05;5.72;;;1.95;;
25153;SDS011;47555;51.038;6.280;2023-09-19T10:45:32;8.32;;;1.98;;
25153;SDS011;47555;51.038;6.280;2023-09-19T10:47:58;6.85;;;1.77;;
25153;SDS011;47555;51.038;6.280;2023-09-19T10:50:25;7.15;;;1.92;;
25153;SDS011;47555;51.038;6.280;2023-09-19T10:52:52;7.13;;;1.70;;
25153;SDS011;47555;51.038;6.280;2023-09-19T10:55:23;5.65;;;1.50;;
25153;SDS011;47555;51.038;6.280;2023-09-19T10:57:50;7.28;;;1.70;;
25153;SDS011;47555;51.038;6.280;2023-09-19T11:00:16;5.72;;;1.75;;
25153;SDS011;47555;51.038;6.280;2023-09-19T11:05:37;8.52;;;1.80;;
25153;SDS011;47555;51.038;6.280;2023-09-19T11:08:06;5.50;;;1.40;;
25153;SDS011;47555;51.038;6.280;2023-09-19T11:10:48;5.75;;;1.83;;
25153;SDS011;47555;51.038;6.280;2023-09-19T11:20:51;8.23;;;1.48;;
25153;SDS011;47555;51.038;6.280;2023-09-19T11:23:36;5.53;;;1.60;;
25153;SDS011;47555;51.038;6.280;2023-09-19T11:26:02;4.43;;;1.67;;
25153;SDS011;47555;51.038;6.280;2023-09-19T11:28:29;6.32;;;1.75;;
25153;SDS011;47555;51.038;6.280;2023-09-19T11:30:56;7.80;;;1.80;;
25153;SDS011;47555;51.038;6.280;2023-09-19T11:36:08;7.03;;;1.77;;
25153;SDS011;47555;51.038;6.280;2023-09-19T11:47:14;6.35;;;2.15;;
25153;SDS011;47555;51.038;6.280;2023-09-19T11:49:15;6.55;;;1.85;;
25153;SDS011;47555;51.038;6.280;2023-09-19T11:51:46;6.22;;;1.65;;
25153;SDS011;47555;51.038;6.280;2023-09-19T11:54:13;4.63;;;1.60;;
25153;SDS011;47555;51.038;6.280;2023-09-19T11:56:47;5.07;;;1.65;;
25153;SDS011;47555;51.038;6.280;2023-09-19T11:59:22;5.78;;;1.58;;
25153;SDS011;47555;51.038;6.280;2023-09-19T12:01:52;5.40;;;1.80;;
25153;SDS011;47555;51.038;6.280;2023-09-19T12:04:38;9.00;;;1.83;;
25153;SDS011;47555;51.038;6.280;2023-09-19T12:07:08;5.43;;;1.95;;
25153;SDS011;47555;51.038;6.280;2023-09-19T12:09:41;5.75;;;1.70;;
25153;SDS011;47555;51.038;6.280;2023-09-19T12:12:20;4.22;;;1.38;;
25153;SDS011;47555;51.038;6.280;2023-09-19T12:14:48;7.22;;;1.67;;
25153;SDS011;47555;51.038;6.280;2023-09-19T12:17:14;6.18;;;1.70;;
25153;SDS011;47555;51.038;6.280;2023-09-19T12:19:49;5.03;;;1.27;;
25153;SDS011;47555;51.038;6.280;2023-09-19T12:22:15;5.22;;;1.20;;
25153;SDS011;47555;51.038;6.280;2023-09-19T12:24:42;3.42;;;1.20;;
25153;SDS011;47555;51.038;6.280;2023-09-19T12:27:09;3.63;;;1.20;;
25153;SDS011;47555;51.038;6.280;2023-09-19T12:32:14;4.38;;;1.23;;
25153;SDS011;47555;51.038;6.280;2023-09-19T12:34:41;3.90;;;1.10;;
25153;SDS011;47555;51.038;6.280;2023-09-19T12:37:11;6.43;;;1.30;;
25153;SDS011;47555;51.038;6.280;2023-09-19T12:39:42;4.28;;;1.25;;
25153;SDS011;47555;51.038;6.280;2023-09-19T12:42:12;5.60;;;1.02;;
25153;SDS011;47555;51.038;6.280;2023-09-19T12:44:40;3.17;;;1.20;;
25153;SDS011;47555;51.038;6.280;2023-09-19T12:47:09;2.95;;;1.23;;
25153;SDS011;47555;51.038;6.280;2023-09-19T12:49:35;5.95;;;1.20;;
25153;SDS011;47555;51.038;6.280;2023-09-19T12:52:02;4.63;;;1.38;;
25153;SDS011;47555;51.038;6.280;2023-09-19T12:54:39;5.35;;;1.52;;
25153;SDS011;47555;51.038;6.280;2023-09-19T12:57:05;6.43;;;1.50;;
25153;SDS011;47555;51.038;6.280;2023-09-19T12:59:31;4.03;;;1.10;;
25153;SDS011;47555;51.038;6.280;2023-09-19T13:02:03;3.63;;;1.00;;
25153;SDS011;47555;51.038;6.280;2023-09-19T13:04:31;1.60;;;1.13;;
25153;SDS011;47555;51.038;6.280;2023-09-19T13:06:58;3.75;;;1.10;;
25153;SDS011;47555;51.038;6.280;2023-09-19T13:09:26;4.38;;;1.27;;
25153;SDS011;47555;51.038;6.280;2023-09-19T13:12:04;4.97;;;1.17;;
25153;SDS011;47555;51.038;6.280;2023-09-19T13:14:31;1.63;;;1.10;;
25153;SDS011;47555;51.038;6.280;2023-09-19T13:17:06;5.03;;;1.10;;
25153;SDS011;47555;51.038;6.280;2023-09-19T13:19:41;2.72;;;0.90;;
25153;SDS011;47555;51.038;6.280;2023-09-19T13:25:08;5.07;;;1.10;;
25153;SDS011;47555;51.038;6.280;2023-09-19T13:27:39;3.58;;;0.88;;
25153;SDS011;47555;51.038;6.280;2023-09-19T13:30:05;1.85;;;0.98;;
25153;SDS011;47555;51.038;6.280;2023-09-19T13:32:32;3.67;;;0.93;;
25153;SDS011;47555;51.038;6.280;2023-09-19T13:34:58;3.88;;;0.93;;
25153;SDS011;47555;51.038;6.280;2023-09-19T13:37:24;3.13;;;1.27;;
25153;SDS011;47555;51.038;6.280;2023-09-19T13:39:51;2.47;;;0.90;;
25153;SDS011;47555;51.038;6.280;2023-09-19T13:42:17;4.63;;;1.45;;
25153;SDS011;47555;51.038;6.280;2023-09-19T13:44:46;2.47;;;0.90;;
25153;SDS011;47555;51.038;6.280;2023-09-19T13:47:12;4.65;;;1.20;;
25153;SDS011;47555;51.038;6.280;2023-09-19T13:49:40;1.85;;;0.80;;
25153;SDS011;47555;51.038;6.280;2023-09-19T13:52:07;3.50;;;1.00;;
25153;SDS011;47555;51.038;6.280;2023-09-19T13:54:33;3.22;;;1.13;;
25153;SDS011;47555;51.038;6.280;2023-09-19T13:56:59;3.78;;;1.10;;
25153;SDS011;47555;51.038;6.280;2023-09-19T13:59:25;2.03;;;0.80;;
25153;SDS011;47555;51.038;6.280;2023-09-19T14:01:53;4.82;;;1.00;;
25153;SDS011;47555;51.038;6.280;2023-09-19T14:04:20;2.10;;;0.98;;
25153;SDS011;47555;51.038;6.280;2023-09-19T14:06:47;5.60;;;1.15;;
25153;SDS011;47555;51.038;6.280;2023-09-19T14:09:13;3.45;;;1.10;;
25153;SDS011;47555;51.038;6.280;2023-09-19T14:11:39;2.08;;;0.90;;
25153;SDS011;47555;51.038;6.280;2023-09-19T14:14:07;3.80;;;0.90;;
25153;SDS011;47555;51.038;6.280;2023-09-19T14:16:33;2.05;;;0.90;;
25153;SDS011;47555;51.038;6.280;2023-09-19T14:18:59;2.42;;;0.95;;
25153;SDS011;47555;51.038;6.280;2023-09-19T14:21:25;3.95;;;0.77;;
25153;SDS011;47555;51.038;6.280;2023-09-19T14:23:51;3.30;;;0.88;;
25153;SDS011;47555;51.038;6.280;2023-09-19T14:26:19;2.72;;;0.68;;
25153;SDS011;47555;51.038;6.280;2023-09-19T14:28:48;2.25;;;0.85;;
25153;SDS011;47555;51.038;6.280;2023-09-19T14:31:14;3.33;;;1.20;;
25153;SDS011;47555;51.038;6.280;2023-09-19T14:33:40;3.05;;;0.90;;
25153;SDS011;47555;51.038;6.280;2023-09-19T14:36:07;2.85;;;0.93;;
25153;SDS011;47555;51.038;6.280;2023-09-19T14:38:34;4.10;;;0.80;;
25153;SDS011;47555;51.038;6.280;2023-09-19T14:41:04;1.60;;;0.85;;
25153;SDS011;47555;51.038;6.280;2023-09-19T14:43:30;1.25;;;0.70;;
25153;SDS011;47555;51.038;6.280;2023-09-19T14:45:57;2.25;;;0.85;;
25153;SDS011;47555;51.038;6.280;2023-09-19T14:48:23;2.83;;;0.85;;
25153;SDS011;47555;51.038;6.280;2023-09-19T14:50:51;1.90;;;0.95;;
25153;SDS011;47555;51.038;6.280;2023-09-19T14:53:17;3.08;;;0.85;;
25153;SDS011;47555;51.038;6.280;2023-09-19T14:55:43;2.47;;;0.95;;
25153;SDS011;47555;51.038;6.280;2023-09-19T14:58:10;1.85;;;0.90;;
25153;SDS011;47555;51.038;6.280;2023-09-19T15:00:37;3.63;;;0.95;;
25153;SDS011;47555;51.038;6.280;2023-09-19T15:03:04;2.08;;;0.77;;
25153;SDS011;47555;51.038;6.280;2023-09-19T15:05:29;1.67;;;0.70;;
25153;SDS011;47555;51.038;6.280;2023-09-19T15:07:56;2.25;;;0.80;;
25153;SDS011;47555;51.038;6.280;2023-09-19T15:10:23;3.40;;;1.08;;
25153;SDS011;47555;51.038;6.280;2023-09-19T15:12:49;3.72;;;0.85;;
25153;SDS011;47555;51.038;6.280;2023-09-19T15:15:15;1.98;;;0.73;;
25153;SDS011;47555;51.038;6.280;2023-09-19T15:17:41;4.82;;;1.63;;
25153;SDS011;47555;51.038;6.280;2023-09-19T15:20:07;1.05;;;0.90;;
25153;SDS011;47555;51.038;6.280;2023-09-19T15:22:33;3.30;;;0.90;;
25153;SDS011;47555;51.038;6.280;2023-09-19T15:24:59;2.47;;;0.90;;
25153;SDS011;47555;51.038;6.280;2023-09-19T15:27:26;3.28;;;0.93;;
25153;SDS011;47555;51.038;6.280;2023-09-19T15:29:52;0.80;;;0.73;;
25153;SDS011;47555;51.038;6.280;2023-09-19T15:32:21;2.10;;;0.80;;
25153;SDS011;47555;51.038;6.280;2023-09-19T15:34:47;1.80;;;0.85;;
25153;SDS011;47555;51.038;6.280;2023-09-19T15:37:13;3.67;;;1.13;;
25153;SDS011;47555;51.038;6.280;2023-09-19T15:39:39;2.65;;;0.90;;
25153;SDS011;47555;51.038;6.280;2023-09-19T15:42:06;3.80;;;1.25;;